CheckWX is a tool to help pilots better visualize weather data.  It is not intended as a substitute for an official pre-flight weather briefing.

19:17:28 UTC

DAAV METAR
Jijel Ferhat Abbas Airport
Jijel, Algeria
Current

1 hour ago

DAAV 261800Z 29012KT 8000 SCT016 FEW020TCU BKN033 18/14 Q1013
Observed
May-26 @ 18:00 UTC
Wind
  • 290° at 12 KTS
Visibility
7,998 meters
Flight Rules
MVFR
Cloud Levels
  • Scattered at 1,600' AGL
  • Few at 2,000' AGL
  • Broken at 3,300' AGL
Temperature
18°C / 64°F
Dewpoint
14°C / 57°F
Humidity
78%
Altimeter
29.91" Hg
Pressure
1012.92 hPa
Previous

2 hours ago

DAAV 261700Z 29013KT 7000 SCT016 FEW020TCU BKN033 18/14 Q1012
Observed
May-26 @ 17:00 UTC
Wind
  • 290° at 13 KTS
Visibility
7,001 meters
Flight Rules
MVFR
Cloud Levels
  • Scattered at 1,600' AGL
  • Few at 2,000' AGL
  • Broken at 3,300' AGL
Temperature
18°C / 64°F
Dewpoint
14°C / 57°F
Humidity
78%
Altimeter
29.88" Hg
Pressure
1011.92 hPa
Previous

3 hours ago

DAAV 261600Z 29013KT 7000 SCT016 FEW020TCU BKN033 19/14 Q1012
Observed
May-26 @ 16:00 UTC
Wind
  • 290° at 13 KTS
Visibility
7,001 meters
Flight Rules
MVFR
Cloud Levels
  • Scattered at 1,600' AGL
  • Few at 2,000' AGL
  • Broken at 3,300' AGL
Temperature
19°C / 66°F
Dewpoint
14°C / 57°F
Humidity
73%
Altimeter
29.88" Hg
Pressure
1011.92 hPa